Time;durP1;ratioP1;P1;durP2;ratioP2;P2;SDS_P1;SDS_P2;PMS_P1;PMS_P2;Temp;Humidity;BMP_temperature;BMP_pressure;BME280_temperature;BME280_humidity;BME280_pressure;Samples;Min_cycle;Max_cycle;Signal;HPM_P1;HPM_P2
2022/05/09 00:01:57;;;;;;;7.63;2.38;;;;;;;17.13;39.46;102633.31;5077739;28;20113;-64
2022/05/09 00:04:26;;;;;;;10.10;2.92;;;;;;;17.16;39.75;102641.00;5076176;28;20443;-65
2022/05/09 00:06:55;;;;;;;9.35;2.83;;;;;;;17.16;39.81;102634.75;5075315;28;20059;-64
2022/05/09 00:09:23;;;;;;;9.93;2.60;;;;;;;17.13;39.84;102633.31;5079549;28;20076;-63
2022/05/09 00:11:51;;;;;;;10.57;1.90;;;;;;;17.12;39.79;102633.53;5078623;28;20104;-63
2022/05/09 00:14:19;;;;;;;9.07;2.13;;;;;;;17.11;39.81;102626.44;5082782;28;20068;-63
2022/05/09 00:16:50;;;;;;;7.65;2.10;;;;;;;17.09;39.86;102625.81;5071316;28;20507;-63
2022/05/09 00:19:20;;;;;;;8.55;2.90;;;;;;;17.08;39.88;102624.16;5082989;28;20104;-63
2022/05/09 00:21:52;;;;;;;11.18;2.78;;;;;;;17.06;39.91;102624.38;5084978;28;20068;-63
2022/05/09 00:24:21;;;;;;;7.85;1.80;;;;;;;17.04;39.89;102617.50;5076986;28;20159;-63
2022/05/09 00:26:50;;;;;;;8.88;2.33;;;;;;;17.03;40.11;102623.97;5073923;28;20055;-63
2022/05/09 00:29:20;;;;;;;9.40;3.08;;;;;;;17.01;39.95;102620.66;5084580;28;20045;-63
2022/05/09 00:31:50;;;;;;;8.82;2.65;;;;;;;17.00;40.10;102616.28;5071182;28;20113;-63
2022/05/09 00:34:21;;;;;;;7.90;3.17;;;;;;;16.99;40.15;102617.31;5080388;28;20055;-63
2022/05/09 00:36:52;;;;;;;6.28;2.20;;;;;;;16.97;40.21;102616.72;5082769;28;20448;-63
2022/05/09 00:39:20;;;;;;;6.80;2.40;;;;;;;16.86;39.95;102596.53;5078392;28;20057;-63
2022/05/09 00:41:48;;;;;;;6.20;2.17;;;;;;;16.91;40.28;102616.56;5080956;28;20079;-63
2022/05/09 00:44:20;;;;;;;7.10;2.55;;;;;;;16.86;40.16;102607.41;5076433;28;20134;-63
2022/05/09 00:46:49;;;;;;;8.45;2.70;;;;;;;16.86;40.38;102616.38;5077582;28;20048;-63
2022/05/09 00:49:22;;;;;;;8.27;3.03;;;;;;;16.85;40.35;102622.03;5078300;28;20117;-63
2022/05/09 00:51:57;;;;;;;7.32;2.67;;;;;;;16.84;40.54;102617.66;5084433;28;20048;-63
2022/05/09 00:54:28;;;;;;;8.43;3.08;;;;;;;16.80;40.65;102614.53;5079654;28;20349;-63
2022/05/09 00:57:02;;;;;;;10.48;2.90;;;;;;;16.77;40.43;102620.41;5074056;28;20199;-63
2022/05/09 00:59:33;;;;;;;11.30;3.00;;;;;;;16.76;40.61;102616.03;5081694;28;20049;-63
2022/05/09 01:02:01;;;;;;;8.57;2.88;;;;;;;16.74;40.69;102614.59;5078425;28;20394;-64
2022/05/09 01:04:36;;;;;;;8.45;2.15;;;;;;;16.72;40.74;102613.97;5083611;28;20083;-63
2022/05/09 01:07:05;;;;;;;6.90;2.78;;;;;;;16.70;40.70;102618.78;5081638;28;20048;-63
2022/05/09 01:09:33;;;;;;;10.52;2.80;;;;;;;16.67;40.72;102608.38;5065472;28;20060;-63
2022/05/09 01:12:00;;;;;;;7.28;2.00;;;;;;;16.62;40.85;102606.28;5064623;28;20056;-64
2022/05/09 01:14:34;;;;;;;6.32;2.17;;;;;;;16.63;40.96;102597.09;5064818;28;21503;-63
2022/05/09 01:17:03;;;;;;;12.20;3.10;;;;;;;16.62;40.92;102600.84;5082221;28;20056;-63
2022/05/09 01:19:34;;;;;;;14.07;3.83;;;;;;;16.59;41.02;102599.41;5072651;28;20048;-63
2022/05/09 01:22:16;;;;;;;8.45;2.88;;;;;;;16.57;40.95;102603.41;5078405;28;20052;-63
2022/05/09 01:24:44;;;;;;;7.82;2.78;;;;;;;16.55;41.00;102598.19;5084408;28;20116;-64
2022/05/09 01:27:12;;;;;;;9.93;3.05;;;;;;;16.53;41.11;102588.59;5072114;28;20088;-63
2022/05/09 01:29:47;;;;;;;10.45;3.33;;;;;;;16.53;41.15;102591.31;5078775;28;20135;-63
2022/05/09 01:32:22;;;;;;;7.65;2.70;;;;;;;16.51;41.04;102594.25;5082944;28;20059;-63
2022/05/09 01:34:54;;;;;;;8.73;3.05;;;;;;;16.46;41.20;102588.63;5070960;28;20068;-63
2022/05/09 01:37:24;;;;;;;8.75;2.50;;;;;;;16.48;41.16;102593.84;5069132;28;20057;-63
2022/05/09 01:39:51;;;;;;;7.05;2.55;;;;;;;16.46;41.07;102585.09;5073462;28;20080;-63
2022/05/09 01:42:19;;;;;;;9.40;3.47;;;;;;;16.44;41.26;102590.75;5077143;28;20048;-63
2022/05/09 01:44:47;;;;;;;11.80;3.58;;;;;;;16.42;41.34;102590.13;5070801;28;20049;-63
2022/05/09 01:50:06;;;;;;;11.50;2.53;;;;;;;16.37;41.38;102587.22;5036036;28;20046;-63
2022/05/09 01:52:36;;;;;;;12.57;3.25;;;;;;;16.38;41.29;102588.06;5029943;28;20079;-63
2022/05/09 01:55:05;;;;;;;7.75;3.00;;;;;;;16.37;41.48;102591.84;5026683;28;20069;-63
2022/05/09 01:57:33;;;;;;;6.82;2.30;;;;;;;16.34;41.37;102590.38;5027076;28;20072;-63
2022/05/09 02:00:01;;;;;;;8.85;2.70;;;;;;;16.32;41.50;102589.78;5025969;28;20069;-64
2022/05/09 02:02:30;;;;;;;10.43;3.17;;;;;;;16.31;41.33;102590.00;5020949;28;20050;-63
2022/05/09 02:04:58;;;;;;;6.93;2.20;;;;;;;16.25;41.55;102591.69;5025880;28;20073;-63
2022/05/09 02:07:26;;;;;;;7.65;2.47;;;;;;;16.27;41.44;102590.41;5026224;28;20084;-63
2022/05/09 02:09:55;;;;;;;10.30;2.70;;;;;;;16.14;41.69;102568.78;5028015;28;20088;-63
2022/05/09 02:12:24;;;;;;;8.95;3.10;;;;;;;16.24;41.54;102590.03;5019852;28;20081;-64
2022/05/09 02:14:51;;;;;;;7.82;2.13;;;;;;;16.23;41.54;102593.78;5024477;28;20491;-64
2022/05/09 02:17:19;;;;;;;9.93;2.70;;;;;;;16.21;41.78;102599.44;5021595;28;20099;-63
2022/05/09 02:19:47;;;;;;;5.32;2.17;;;;;;;16.19;41.81;102596.09;5022303;28;20062;-64
2022/05/09 02:22:15;;;;;;;9.40;2.55;;;;;;;16.19;41.80;102595.25;5024914;28;20092;-63
2022/05/09 02:24:45;;;;;;;8.63;2.75;;;;;;;16.13;41.77;102583.41;5022723;28;20131;-64
2022/05/09 02:27:14;;;;;;;8.52;2.28;;;;;;;16.02;41.91;102573.22;5053172;28;20056;-64
2022/05/09 02:29:42;;;;;;;11.45;3.13;;;;;;;16.11;41.74;102585.50;5073295;28;20080;-63
2022/05/09 02:32:11;;;;;;;8.48;2.67;;;;;;;16.10;42.04;102577.56;5076912;28;20059;-63
2022/05/09 02:34:39;;;;;;;7.32;2.75;;;;;;;16.08;41.84;102583.22;5075253;28;20492;-63
2022/05/09 02:37:07;;;;;;;8.70;2.63;;;;;;;16.05;41.93;102578.22;5068777;28;20064;-63
2022/05/09 02:39:35;;;;;;;8.73;2.20;;;;;;;16.02;42.04;102573.22;5077384;28;20053;-63
2022/05/09 02:42:03;;;;;;;8.45;2.25;;;;;;;15.94;41.71;102571.59;5085130;28;20064;-63
2022/05/09 02:44:37;;;;;;;7.72;2.78;;;;;;;15.99;42.11;102583.69;5081183;28;20040;-63
2022/05/09 02:47:06;;;;;;;12.23;2.67;;;;;;;15.97;42.00;102580.34;5082234;28;20079;-63
2022/05/09 02:49:33;;;;;;;7.88;2.80;;;;;;;15.95;42.18;102586.00;5074469;28;20053;-63
2022/05/09 02:52:02;;;;;;;9.27;2.67;;;;;;;15.92;42.40;102568.25;5084159;28;20087;-64
2022/05/09 02:54:30;;;;;;;8.45;2.90;;;;;;;15.79;42.42;102551.22;5083558;28;20048;-64
2022/05/09 02:56:58;;;;;;;8.23;2.70;;;;;;;15.89;42.16;102568.69;5086295;28;20052;-64
2022/05/09 02:59:26;;;;;;;9.95;2.17;;;;;;;15.87;42.33;102570.78;5071214;28;20060;-64
2022/05/09 03:01:55;;;;;;;10.18;2.60;;;;;;;15.86;42.47;102571.84;5084468;28;20068;-63
2022/05/09 03:04:40;;;;;;;9.35;2.50;;;;;;;15.83;42.38;102566.00;5084813;28;20052;-63
2022/05/09 03:07:07;;;;;;;8.27;2.65;;;;;;;15.70;42.44;102544.38;5083486;28;20080;-64
2022/05/09 03:09:35;;;;;;;6.82;2.70;;;;;;;15.76;42.33;102560.63;5078694;28;20382;-64
2022/05/09 03:12:04;;;;;;;9.45;2.50;;;;;;;15.78;42.61;102571.25;5069164;28;20478;-63
2022/05/09 03:14:32;;;;;;;11.52;2.90;;;;;;;15.76;42.60;102568.75;5082326;28;20079;-63
2022/05/09 03:17:02;;;;;;;9.48;3.03;;;;;;;15.70;42.53;102560.63;5080092;28;20178;-63
2022/05/09 03:19:29;;;;;;;10.02;2.22;;;;;;;15.73;42.58;102573.75;5084179;28;20091;-64
2022/05/09 03:21:57;;;;;;;8.38;3.17;;;;;;;15.72;42.54;102570.22;5086421;28;20071;-63
2022/05/09 03:24:25;;;;;;;6.03;2.33;;;;;;;15.71;42.46;102568.56;5081337;28;20059;-64
2022/05/09 03:26:53;;;;;;;10.45;2.95;;;;;;;15.69;42.57;102570.66;5086397;28;20075;-64
2022/05/09 03:29:22;;;;;;;7.20;2.58;;;;;;;15.68;42.61;102562.72;5083001;28;20113;-63
2022/05/09 03:31:52;;;;;;;10.00;2.78;;;;;;;15.66;42.28;102564.81;5086206;28;20083;-63
2022/05/09 03:34:21;;;;;;;7.80;2.50;;;;;;;15.64;42.70;102570.47;5075024;28;20048;-63
2022/05/09 03:36:51;;;;;;;11.00;2.83;;;;;;;15.62;42.48;102561.72;5085754;28;20488;-64
2022/05/09 03:39:19;;;;;;;11.38;3.05;;;;;;;15.61;42.42;102563.59;5078951;28;20063;-63
2022/05/09 03:41:46;;;;;;;13.93;3.33;;;;;;;15.61;42.79;102555.44;5086330;28;20056;-64
2022/05/09 03:44:14;;;;;;;10.43;3.05;;;;;;;15.58;42.75;102555.91;5072294;28;20068;-63
2022/05/09 03:46:42;;;;;;;7.78;2.92;;;;;;;15.57;42.67;102556.97;5085930;28;20092;-64
2022/05/09 03:49:11;;;;;;;14.35;3.30;;;;;;;15.56;42.74;102554.44;5082270;28;20044;-64
2022/05/09 03:51:41;;;;;;;9.20;2.97;;;;;;;15.34;42.54;102525.94;5084417;28;20079;-64
2022/05/09 03:54:08;;;;;;;11.23;3.00;;;;;;;15.50;42.60;102547.97;5084424;28;20048;-64
2022/05/09 03:56:36;;;;;;;8.18;3.13;;;;;;;15.50;42.85;102556.13;5079493;28;20064;-64
2022/05/09 03:59:04;;;;;;;5.88;2.70;;;;;;;15.48;42.77;102555.50;5083331;28;20136;-64
2022/05/09 04:01:32;;;;;;;9.07;3.22;;;;;;;15.47;42.78;102553.81;5078897;28;20088;-64
2022/05/09 04:04:00;;;;;;;9.10;3.13;;;;;;;15.45;42.72;102561.34;5066160;28;20112;-64
2022/05/09 04:06:28;;;;;;;15.15;2.70;;;;;;;15.44;43.01;102550.72;5072944;28;20147;-64
2022/05/09 04:08:57;;;;;;;10.23;3.45;;;;;;;15.41;42.55;102559.25;5083246;28;20049;-64
2022/05/09 04:11:25;;;;;;;9.52;2.97;;;;;;;15.40;42.95;102553.00;5075186;28;20116;-64
2022/05/09 04:13:52;;;;;;;11.57;2.90;;;;;;;15.38;42.97;102555.09;5070167;28;20080;-64
2022/05/09 04:19:05;;;;;;;8.52;2.88;;;;;;;15.35;43.06;102554.69;5077932;28;20045;-64
2022/05/09 04:21:33;;;;;;;8.65;2.97;;;;;;;15.33;43.11;102546.78;5071157;28;20104;-64
2022/05/09 04:24:03;;;;;;;9.27;3.03;;;;;;;15.31;42.98;102543.44;5071764;28;20140;-64
2022/05/09 04:26:31;;;;;;;9.25;3.75;;;;;;;15.29;43.13;102548.25;5075891;28;20132;-64
2022/05/09 04:28:59;;;;;;;11.23;3.35;;;;;;;15.28;42.84;102550.13;5076952;28;20052;-64
2022/05/09 04:31:28;;;;;;;9.98;3.30;;;;;;;15.26;42.87;102545.97;5086007;28;20044;-64
2022/05/09 04:33:58;;;;;;;7.85;3.15;;;;;;;15.19;43.03;102545.13;5069188;28;20044;-64
2022/05/09 04:36:26;;;;;;;7.93;3.45;;;;;;;15.19;42.89;102545.97;5077551;28;20037;-63
2022/05/09 04:38:54;;;;;;;10.63;3.65;;;;;;;15.21;43.08;102549.31;5080540;28;20048;-63
2022/05/09 04:41:25;;;;;;;8.75;2.83;;;;;;;15.20;43.29;102555.75;5073689;28;20072;-64
2022/05/09 04:43:53;;;;;;;9.10;3.53;;;;;;;15.18;42.98;102547.00;5064324;28;20084;-63
2022/05/09 04:46:20;;;;;;;7.60;3.08;;;;;;;15.17;43.14;102549.94;5076467;28;20135;-63
2022/05/09 04:48:48;;;;;;;9.55;3.00;;;;;;;15.11;43.11;102540.78;5083529;28;20044;-64
2022/05/09 04:51:16;;;;;;;13.75;3.95;;;;;;;15.13;43.35;102554.09;5083003;28;20060;-64
2022/05/09 04:53:46;;;;;;;9.40;3.35;;;;;;;15.13;43.16;102551.41;5083045;28;20059;-63
2022/05/09 04:56:14;;;;;;;12.27;3.35;;;;;;;15.12;43.10;102547.03;5068659;28;20045;-63
2022/05/09 04:58:43;;;;;;;7.60;2.63;;;;;;;15.12;43.26;102547.03;5075820;28;20057;-64
2022/05/09 05:01:11;;;;;;;12.07;2.72;;;;;;;15.11;43.55;102543.47;5080521;28;20055;-65
2022/05/09 05:03:39;;;;;;;9.65;2.97;;;;;;;15.10;43.30;102544.53;5078098;28;20044;-64
2022/05/09 05:06:07;;;;;;;9.50;3.20;;;;;;;15.10;43.35;102538.28;5077781;28;20079;-64
2022/05/09 05:08:35;;;;;;;9.57;3.30;;;;;;;15.10;43.30;102547.22;5073460;28;20091;-65
2022/05/09 05:11:04;;;;;;;9.93;2.92;;;;;;;15.10;43.45;102546.41;5076625;28;20048;-64
2022/05/09 05:13:33;;;;;;;14.52;3.15;;;;;;;15.09;43.50;102539.31;5076945;28;20104;-64
2022/05/09 05:16:03;;;;;;;6.85;3.05;;;;;;;15.08;43.32;102541.19;5065420;28;20095;-63
2022/05/09 05:18:32;;;;;;;7.63;2.95;;;;;;;15.08;43.38;102546.63;5073965;28;20129;-62
2022/05/09 05:21:08;;;;;;;7.90;2.63;;;;;;;15.09;43.54;102533.91;5080085;28;20045;-63
2022/05/09 05:23:36;;;;;;;10.27;4.10;;;;;;;15.09;43.37;102542.03;5072999;28;20116;-62
2022/05/09 05:26:04;;;;;;;8.93;3.08;;;;;;;15.09;43.55;102531.19;5079188;28;20087;-62
2022/05/09 05:28:33;;;;;;;12.85;3.40;;;;;;;15.09;43.42;102544.75;5080429;28;20052;-63
2022/05/09 05:31:13;;;;;;;7.78;3.20;;;;;;;15.05;43.23;102541.63;5064880;28;20079;-63
2022/05/09 05:33:41;;;;;;;9.38;3.50;;;;;;;15.11;43.38;102548.91;5079735;28;20079;-63
2022/05/09 05:36:09;;;;;;;8.35;3.03;;;;;;;15.12;43.59;102552.44;5078889;28;20063;-64
2022/05/09 05:38:36;;;;;;;9.18;3.55;;;;;;;15.12;43.68;102544.31;5073222;28;20135;-61
2022/05/09 05:41:04;;;;;;;7.10;3.25;;;;;;;15.14;43.15;102550.34;5078810;28;20068;-61
2022/05/09 05:43:32;;;;;;;6.85;3.20;;;;;;;15.13;43.37;102538.69;5068556;28;20116;-64
2022/05/09 05:46:00;;;;;;;7.65;3.17;;;;;;;15.16;43.15;102542.84;5078714;28;20501;-65
2022/05/09 05:48:29;;;;;;;8.07;2.90;;;;;;;15.15;43.56;102546.59;5074038;28;20048;-63
2022/05/09 05:50:56;;;;;;;7.43;3.10;;;;;;;15.18;43.52;102546.19;5079078;28;20083;-62
2022/05/09 05:53:24;;;;;;;7.07;2.65;;;;;;;15.18;43.64;102548.88;5074388;28;20041;-62
2022/05/09 05:55:52;;;;;;;9.82;4.05;;;;;;;15.09;43.49;102531.19;5082859;28;20048;-62
2022/05/09 05:58:19;;;;;;;12.80;3.33;;;;;;;15.16;43.30;102545.56;5079415;28;20048;-63
2022/05/09 06:00:47;;;;;;;10.52;3.30;;;;;;;15.16;43.71;102540.97;5079989;28;20072;-63
2022/05/09 06:03:15;;;;;;;11.60;3.55;;;;;;;15.11;43.27;102538.06;4717536;28;10000189;-62
2022/05/09 06:05:44;;;;;;;12.23;3.30;;;;;;;15.17;43.34;102544.50;5074744;28;20080;-61
2022/05/09 06:08:12;;;;;;;10.27;3.22;;;;;;;15.17;43.76;102539.94;5068606;28;20581;-62
2022/05/09 06:10:40;;;;;;;8.27;3.72;;;;;;;15.19;43.30;102537.00;5078397;28;20139;-62
2022/05/09 06:13:10;;;;;;;7.00;2.92;;;;;;;15.20;43.40;102542.22;5068591;28;20452;-65
2022/05/09 06:15:38;;;;;;;10.07;3.78;;;;;;;15.23;43.55;102551.78;5070615;28;20056;-63
2022/05/09 06:18:09;;;;;;;9.70;3.38;;;;;;;15.24;43.71;102546.16;5066454;28;20052;-63
2022/05/09 06:20:38;;;;;;;8.68;3.35;;;;;;;15.28;43.77;102544.69;5076355;28;20510;-63
2022/05/09 06:23:09;;;;;;;9.38;3.80;;;;;;;15.31;43.74;102543.44;5073766;28;20493;-64
2022/05/09 06:25:37;;;;;;;8.48;2.88;;;;;;;15.29;43.48;102534.69;5074150;28;20633;-63
2022/05/09 06:28:06;;;;;;;7.18;2.80;;;;;;;15.35;43.54;102538.44;5076279;28;20074;-62
2022/05/09 06:30:34;;;;;;;7.75;2.90;;;;;;;15.39;43.67;102535.09;5069838;28;20124;-63
2022/05/09 06:33:02;;;;;;;7.50;3.35;;;;;;;15.41;43.71;102535.72;5074186;28;20143;-63
2022/05/09 06:35:30;;;;;;;6.50;3.97;;;;;;;15.42;44.07;102536.53;5072307;28;20087;-63
2022/05/09 06:38:01;;;;;;;9.18;2.75;;;;;;;15.46;43.99;102535.91;5071421;28;20080;-63
2022/05/09 06:40:32;;;;;;;10.50;3.63;;;;;;;15.50;43.78;102534.44;5073571;28;20049;-63
2022/05/09 06:43:00;;;;;;;6.45;3.00;;;;;;;15.53;43.99;102533.19;5066207;28;20092;-63
2022/05/09 06:45:28;;;;;;;7.10;2.67;;;;;;;15.55;43.67;102540.06;5071545;28;20053;-64
2022/05/09 06:47:57;;;;;;;7.85;3.03;;;;;;;15.43;43.80;102505.69;5068160;28;20075;-63
2022/05/09 06:50:27;;;;;;;5.78;2.88;;;;;;;15.61;43.72;102527.53;5058428;28;20099;-64
2022/05/09 06:52:55;;;;;;;7.88;3.15;;;;;;;15.63;43.64;102531.69;5058953;28;20111;-62
2022/05/09 06:55:44;;;;;;;7.03;2.67;;;;;;;15.65;43.92;102530.63;5074655;28;20060;-63
2022/05/09 06:58:14;;;;;;;6.53;3.03;;;;;;;15.69;43.92;102529.16;5073415;28;20044;-63
2022/05/09 07:00:41;;;;;;;8.45;2.83;;;;;;;15.71;43.91;102533.31;5066971;28;20139;-63
2022/05/09 07:03:12;;;;;;;6.93;2.50;;;;;;;15.73;43.71;102530.41;5065618;28;20068;-63
2022/05/09 07:05:43;;;;;;;6.00;2.95;;;;;;;15.76;43.71;102535.38;5061691;28;20049;-63
2022/05/09 07:08:11;;;;;;;7.70;3.08;;;;;;;15.73;44.00;102531.22;5064540;28;20052;-63
2022/05/09 07:10:39;;;;;;;5.35;2.90;;;;;;;15.79;43.94;102532.25;5067195;28;20045;-63
2022/05/09 07:13:09;;;;;;;8.68;3.33;;;;;;;15.82;44.02;102529.09;5059675;28;20079;-64
2022/05/09 07:15:37;;;;;;;9.60;3.83;;;;;;;15.81;43.98;102524.72;5058729;28;20135;-64
2022/05/09 07:18:06;;;;;;;7.10;3.13;;;;;;;15.82;44.03;102523.69;5060020;28;20135;-64
2022/05/09 07:20:35;;;;;;;10.85;2.80;;;;;;;15.82;44.17;102529.94;5064441;28;20197;-65
2022/05/09 07:23:07;;;;;;;7.88;2.90;;;;;;;15.80;44.12;102525.78;5063703;28;20252;-65
2022/05/09 07:25:36;;;;;;;9.70;3.20;;;;;;;15.79;44.37;102529.53;5057359;28;20314;-64
2022/05/09 07:28:05;;;;;;;4.88;2.83;;;;;;;15.78;43.97;102528.69;5071258;28;20063;-65
2022/05/09 07:30:34;;;;;;;6.22;2.63;;;;;;;15.77;44.38;102534.34;5075962;28;20076;-65
2022/05/09 07:33:03;;;;;;;9.15;3.22;;;;;;;15.76;44.45;102527.25;5072013;28;20056;-66
2022/05/09 07:35:32;;;;;;;5.13;2.67;;;;;;;15.74;44.20;102529.34;5078261;28;20074;-65
2022/05/09 07:38:00;;;;;;;8.95;3.20;;;;;;;15.74;44.31;102529.34;5075637;28;20061;-65
2022/05/09 07:40:35;;;;;;;8.55;3.35;;;;;;;15.74;44.42;102532.88;5069507;28;20044;-65
2022/05/09 07:43:09;;;;;;;9.70;3.58;;;;;;;15.73;44.62;102530.41;5072724;28;20083;-65
2022/05/09 07:45:38;;;;;;;6.78;2.60;;;;;;;15.72;44.45;102520.59;5078918;28;20057;-64
2022/05/09 07:48:08;;;;;;;10.23;3.28;;;;;;;15.73;44.58;102519.56;5065380;28;20131;-64
2022/05/09 07:50:36;;;;;;;6.38;3.10;;;;;;;15.68;44.58;102516.66;5074023;28;20087;-67
2022/05/09 07:53:08;;;;;;;7.55;3.42;;;;;;;15.73;44.72;102528.50;5073511;28;20083;-66
2022/05/09 07:55:37;;;;;;;7.00;3.70;;;;;;;15.70;44.80;102520.81;5076566;28;20106;-67
2022/05/09 07:58:05;;;;;;;13.52;3.42;;;;;;;15.74;44.69;102521.22;5080616;28;20048;-66
2022/05/09 08:00:32;;;;;;;8.55;3.55;;;;;;;15.74;44.74;102529.34;5071962;28;20060;-67
2022/05/09 08:03:01;;;;;;;7.28;2.63;;;;;;;15.74;44.92;102535.59;5081978;28;20132;-66
2022/05/09 08:05:29;;;;;;;5.60;2.80;;;;;;;15.75;45.05;102526.41;5080176;28;20055;-66
2022/05/09 08:07:57;;;;;;;7.80;3.10;;;;;;;15.76;44.85;102517.25;5081151;28;20099;-66
2022/05/09 08:10:25;;;;;;;6.10;3.00;;;;;;;15.78;45.11;102530.56;5072615;28;20049;-66
2022/05/09 08:12:53;;;;;;;6.28;2.85;;;;;;;15.77;45.34;102524.31;5073474;28;20053;-66
2022/05/09 08:15:21;;;;;;;6.63;2.90;;;;;;;15.77;45.22;102524.31;5084773;28;20060;-67
2022/05/09 08:17:50;;;;;;;8.27;3.45;;;;;;;15.78;45.12;102526.00;5077894;28;20056;-67
2022/05/09 08:20:19;;;;;;;8.57;3.05;;;;;;;15.79;45.62;102521.41;5067640;28;20052;-66
2022/05/09 08:22:47;;;;;;;7.22;3.10;;;;;;;15.84;46.89;102518.88;5073963;28;20055;-66
2022/05/09 08:25:16;;;;;;;9.90;3.03;;;;;;;15.86;47.61;102517.59;5073364;28;20786;-66
2022/05/09 08:27:43;;;;;;;9.90;3.20;;;;;;;15.84;46.46;102516.16;5075443;28;20189;-65
2022/05/09 08:30:12;;;;;;;9.45;2.75;;;;;;;15.90;46.35;102520.72;5073602;28;20076;-65
2022/05/09 08:32:43;;;;;;;7.47;2.95;;;;;;;15.90;46.22;102523.44;5066124;28;20057;-65
2022/05/09 08:35:13;;;;;;;7.40;2.55;;;;;;;15.91;46.14;102522.38;5064240;28;20175;-66
2022/05/09 08:37:43;;;;;;;6.85;3.13;;;;;;;15.94;46.59;102521.94;5072114;28;20048;-67
2022/05/09 08:40:13;;;;;;;6.25;2.47;;;;;;;15.96;46.95;102522.56;5076262;28;20068;-66
2022/05/09 08:42:48;;;;;;;5.53;2.97;;;;;;;15.98;47.75;102517.75;5069180;28;20127;-67
2022/05/09 08:45:26;;;;;;;5.22;2.42;;;;;;;16.01;48.54;102520.03;5082603;28;20047;-66
2022/05/09 08:48:23;;;;;;;4.95;2.53;;;;;;;16.03;47.41;102515.22;5074613;28;20056;-66
2022/05/09 08:51:01;;;;;;;;;;;;;;;16.07;47.06;102521.06;5069154;28;20087;-66
2022/05/09 08:53:34;;;;;;;4.88;2.40;;;;;;;16.08;46.58;102517.28;5065041;28;19968;-67
2022/05/09 08:56:02;;;;;;;7.68;2.53;;;;;;;16.09;46.93;102514.34;5073680;28;20053;-66
2022/05/09 08:58:39;;;;;;;7.43;2.47;;;;;;;16.10;46.67;102510.59;5069597;28;20080;-66
2022/05/09 09:01:13;;;;;;;7.65;2.65;;;;;;;16.11;46.38;102512.25;5065668;28;20055;-65
2022/05/09 09:03:45;;;;;;;9.30;2.90;;;;;;;16.13;46.46;102510.16;5070051;28;20036;-66
2022/05/09 09:06:32;;;;;;;6.57;2.72;;;;;;;16.11;46.98;102503.28;5069364;28;20094;-66
2022/05/09 09:09:14;;;;;;;5.60;2.60;;;;;;;16.23;49.79;102510.50;5073207;28;20501;-66
2022/05/09 09:11:56;;;;;;;4.63;2.10;;;;;;;16.25;48.37;102502.16;5071183;28;20059;-66
2022/05/09 09:14:40;;;;;;;8.20;2.25;;;;;;;16.27;47.51;102491.91;5077809;28;20087;-66
2022/05/09 09:17:24;;;;;;;5.80;2.22;;;;;;;16.31;47.01;102497.72;5071830;28;20044;-66
2022/05/09 09:20:09;;;;;;;7.55;3.03;;;;;;;16.34;47.43;102489.16;5072988;28;20478;-66
2022/05/09 09:23:05;;;;;;;5.35;2.38;;;;;;;16.36;47.26;102485.16;5066434;28;20052;-67
2022/05/09 09:25:41;;;;;;;6.15;2.03;;;;;;;16.40;47.69;102491.81;5075896;28;20048;-65
2022/05/09 09:28:14;;;;;;;5.85;2.45;;;;;;;16.44;47.83;102489.50;5068214;28;20070;-65
2022/05/09 09:30:43;;;;;;;6.47;2.30;;;;;;;16.37;47.62;102459.69;5072013;28;20486;-65
2022/05/09 09:33:13;;;;;;;5.13;2.10;;;;;;;16.54;47.61;102484.41;5073767;28;20138;-64
2022/05/09 09:35:48;;;;;;;6.88;2.10;;;;;;;16.47;47.29;102468.19;5074507;28;20061;-65
2022/05/09 09:38:36;;;;;;;7.32;2.00;;;;;;;16.63;47.61;102484.97;5074943;28;20165;-64
2022/05/09 09:41:20;;;;;;;4.63;2.50;;;;;;;16.66;47.29;102476.41;5069599;28;20068;-66
2022/05/09 09:43:49;;;;;;;5.40;2.05;;;;;;;16.69;47.10;102482.22;5071368;28;20040;-65
2022/05/09 09:46:17;;;;;;;6.07;2.65;;;;;;;16.72;47.18;102479.06;5070180;28;20040;-65
2022/05/09 09:48:45;;;;;;;6.32;2.28;;;;;;;16.76;47.05;102480.28;5079456;28;20482;-66
2022/05/09 09:51:18;;;;;;;6.28;2.20;;;;;;;16.84;47.89;102482.69;5078380;28;20052;-66
2022/05/09 09:54:01;;;;;;;5.45;2.45;;;;;;;16.89;47.37;102484.75;5066446;28;20053;-67
2022/05/09 09:56:32;;;;;;;4.50;2.03;;;;;;;16.95;47.28;102475.69;5064583;28;20075;-66
2022/05/09 09:59:18;;;;;;;5.18;2.13;;;;;;;17.00;46.96;102472.31;5065703;28;20060;-66
2022/05/09 10:02:03;;;;;;;6.45;2.50;;;;;;;17.05;47.38;102470.59;5065585;28;20055;-66
2022/05/09 10:04:31;;;;;;;3.65;1.77;;;;;;;17.11;47.50;102466.13;5078701;28;20052;-65
2022/05/09 10:07:02;;;;;;;7.68;2.42;;;;;;;17.16;47.59;102464.41;5079553;28;20109;-67
2022/05/09 10:09:41;;;;;;;5.68;2.05;;;;;;;17.26;47.54;102457.59;5079335;28;20052;-66
2022/05/09 10:12:20;;;;;;;4.60;2.05;;;;;;;17.29;47.25;102459.88;5070405;28;20079;-66
2022/05/09 10:14:48;;;;;;;5.05;2.38;;;;;;;17.33;47.08;102452.94;5066507;28;20052;-65
2022/05/09 10:17:22;;;;;;;7.00;2.53;;;;;;;17.28;47.09;102447.34;5066372;28;20083;-66
2022/05/09 10:19:52;;;;;;;6.53;3.15;;;;;;;17.36;46.85;102447.00;5073451;28;20057;-65
2022/05/09 10:25:15;;;;;;;11.52;2.55;;;;;;;17.38;46.06;102436.72;5070893;28;20041;-65
2022/05/09 10:27:45;;;;;;;6.22;2.25;;;;;;;17.38;45.48;102439.44;5063037;28;20087;-66
2022/05/09 10:30:31;;;;;;;7.82;2.47;;;;;;;17.39;46.12;102435.69;5068606;28;20055;-64
2022/05/09 10:33:05;;;;;;;3.65;2.15;;;;;;;17.46;46.50;102434.53;5079918;28;20044;-65
2022/05/09 10:35:38;;;;;;;6.13;2.30;;;;;;;17.53;46.34;102429.00;5072132;28;20114;-63
2022/05/09 10:38:12;;;;;;;5.88;1.67;;;;;;;17.58;46.00;102426.44;5070501;28;20045;-65
2022/05/09 10:40:44;;;;;;;5.53;2.60;;;;;;;17.65;46.07;102423.63;5077686;28;20108;-66
2022/05/09 10:43:23;;;;;;;3.88;2.00;;;;;;;17.73;46.96;102420.59;5075547;28;20049;-65
2022/05/09 10:45:51;;;;;;;5.25;2.33;;;;;;;17.84;46.91;102426.09;5079449;28;20044;-64
2022/05/09 10:48:26;;;;;;;6.45;2.10;;;;;;;17.96;47.46;102417.97;5067393;28;20052;-64
2022/05/09 10:51:00;;;;;;;8.27;2.38;;;;;;;18.08;47.23;102416.09;5068804;28;20146;-65
2022/05/09 10:53:35;;;;;;;12.02;3.10;;;;;;;18.18;47.17;102421.78;5068018;28;20076;-63
2022/05/09 10:56:08;;;;;;;6.78;2.65;;;;;;;18.28;47.32;102409.50;5062510;28;20091;-64
2022/05/09 10:58:41;;;;;;;6.18;2.45;;;;;;;18.33;47.00;102412.34;5073248;28;20059;-64
2022/05/09 11:01:16;;;;;;;7.13;1.92;;;;;;;18.37;47.08;102416.25;5073104;28;20151;-64
2022/05/09 11:03:45;;;;;;;7.50;2.60;;;;;;;18.50;47.40;102413.31;5073630;28;20048;-64
2022/05/09 11:06:21;;;;;;;8.02;2.33;;;;;;;18.55;47.12;102399.81;5073723;28;20045;-62
2022/05/09 11:09:10;;;;;;;6.82;2.10;;;;;;;18.52;46.41;102395.66;5079290;28;20069;-63
2022/05/09 11:11:47;;;;;;;4.35;2.08;;;;;;;18.65;46.47;102404.69;5072429;28;20049;-63
2022/05/09 11:14:25;;;;;;;7.95;2.47;;;;;;;18.75;47.02;102396.75;5078347;28;20049;-63
2022/05/09 11:17:23;;;;;;;6.10;2.22;;;;;;;18.82;46.56;102392.84;5080135;28;20044;-63
2022/05/09 11:20:07;;;;;;;4.68;1.73;;;;;;;18.88;46.70;102391.06;5071846;28;20162;-63
2022/05/09 11:22:39;;;;;;;6.68;2.03;;;;;;;18.92;46.67;102384.06;5076008;28;20048;-64
2022/05/09 11:25:19;;;;;;;5.75;2.00;;;;;;;19.02;46.85;102386.16;5078557;28;20079;-64
2022/05/09 11:27:55;;;;;;;6.43;2.00;;;;;;;19.13;46.63;102383.38;5075810;28;20037;-64
2022/05/09 11:30:33;;;;;;;6.05;1.90;;;;;;;19.17;46.39;102384.56;5076564;28;20091;-63
2022/05/09 11:33:23;;;;;;;7.88;2.92;;;;;;;19.22;46.21;102363.91;5077787;28;20500;-63
2022/05/09 11:35:54;;;;;;;4.53;1.95;;;;;;;19.24;45.88;102372.69;5071193;28;20067;-64
2022/05/09 11:38:33;;;;;;;3.17;1.65;;;;;;;19.27;45.65;102369.47;5077547;28;20056;-63
2022/05/09 11:41:09;;;;;;;9.80;2.25;;;;;;;19.36;45.80;102368.84;5067422;28;20084;-63
2022/05/09 11:43:58;;;;;;;5.10;1.90;;;;;;;19.44;46.48;102363.00;5069062;28;20190;-63
2022/05/09 11:46:40;;;;;;;4.18;2.03;;;;;;;19.58;46.12;102357.28;5079341;28;20044;-64
2022/05/09 11:49:25;;;;;;;6.45;2.22;;;;;;;19.68;46.12;102354.72;5066165;28;20099;-64
2022/05/09 11:51:55;;;;;;;6.28;2.10;;;;;;;19.76;46.01;102348.88;5081307;28;20068;-64